createdAt,value
2022-09-01T00:00:02.051Z,7.70
2022-09-01T00:02:29.687Z,7.87
2022-09-01T00:04:58.483Z,7.97
2022-09-01T00:07:32.478Z,7.57
2022-09-01T00:10:00.559Z,7.05
2022-09-01T00:12:27.973Z,7.47
2022-09-01T00:14:54.622Z,7.43
2022-09-01T00:17:21.251Z,7.45
2022-09-01T00:19:47.825Z,7.05
2022-09-01T00:22:14.286Z,7.60
2022-09-01T00:24:40.757Z,8.05
2022-09-01T00:27:07.289Z,7.53
2022-09-01T00:29:34.088Z,7.68
2022-09-01T00:32:00.536Z,7.85
2022-09-01T00:34:27.092Z,7.25
2022-09-01T00:36:53.595Z,7.25
2022-09-01T00:39:20.196Z,6.90
2022-09-01T00:41:47.836Z,6.82
2022-09-01T00:44:18.958Z,7.22
2022-09-01T00:46:55.670Z,7.03
2022-09-01T00:49:27.539Z,7.20
2022-09-01T00:51:57.421Z,7.17
2022-09-01T00:54:28.873Z,7.13
2022-09-01T00:56:57.795Z,7.15
2022-09-01T00:59:26.929Z,6.45
2022-09-01T01:01:54.282Z,7.07
2022-09-01T01:04:20.822Z,6.93
2022-09-01T01:06:58.459Z,6.72
2022-09-01T01:09:27.243Z,7.28
2022-09-01T01:11:54.220Z,7.28
2022-09-01T01:14:20.763Z,7.20
2022-09-01T01:16:50.791Z,6.43
2022-09-01T01:19:48.222Z,6.57
2022-09-01T01:22:43.493Z,6.70
2022-09-01T01:25:12.762Z,6.57
2022-09-01T01:27:42.818Z,6.75
2022-09-01T01:30:12.261Z,6.57
2022-09-01T01:32:43.194Z,6.72
2022-09-01T01:35:14.625Z,6.88
2022-09-01T01:37:46.663Z,7.00
2022-09-01T01:40:15.887Z,6.60
2022-09-01T01:42:48.030Z,6.90
2022-09-01T01:45:19.838Z,7.20
2022-09-01T01:47:53.327Z,7.13
2022-09-01T01:50:35.540Z,7.88
2022-09-01T01:53:10.795Z,8.05
2022-09-01T01:55:39.405Z,7.77
2022-09-01T01:58:09.415Z,7.00
2022-09-01T02:00:37.723Z,6.65
2022-09-01T02:03:05.178Z,7.15
2022-09-01T02:05:35.375Z,6.40
2022-09-01T02:08:11.100Z,7.03
2022-09-01T02:10:46.796Z,6.53
2022-09-01T02:13:16.501Z,6.60
2022-09-01T02:15:49.348Z,6.28
2022-09-01T02:18:26.338Z,6.63
2022-09-01T02:20:53.819Z,6.13
2022-09-01T02:23:25.085Z,6.18
2022-09-01T02:26:15.042Z,5.63
2022-09-01T02:28:44.116Z,6.47
2022-09-01T02:31:11.759Z,6.28
2022-09-01T02:33:39.825Z,6.60
2022-09-01T02:36:10.075Z,6.28
2022-09-01T02:38:36.584Z,6.80
2022-09-01T02:41:05.556Z,6.43
2022-09-01T02:43:32.097Z,6.40
2022-09-01T02:46:00.906Z,6.63
2022-09-01T02:48:35.776Z,6.80
2022-09-01T02:51:10.391Z,6.03
2022-09-01T02:53:39.229Z,6.40
2022-09-01T02:56:14.414Z,5.93
2022-09-01T02:58:46.115Z,6.40
2022-09-01T03:01:22.612Z,6.20
2022-09-01T03:03:51.429Z,6.18
2022-09-01T03:06:19.832Z,6.63
2022-09-01T03:08:47.905Z,6.43
2022-09-01T03:11:14.390Z,5.97
2022-09-01T03:13:41.787Z,6.35
2022-09-01T03:16:09.611Z,6.28
2022-09-01T03:18:36.853Z,6.15
2022-09-01T03:21:05.212Z,6.40
2022-09-01T03:23:33.910Z,6.53
2022-09-01T03:26:03.665Z,6.13
2022-09-01T03:28:30.440Z,6.18
2022-09-01T03:30:58.364Z,6.93
2022-09-01T03:33:27.549Z,6.72
2022-09-01T03:35:55.018Z,6.73
2022-09-01T03:38:24.163Z,6.22
2022-09-01T03:40:53.543Z,6.70
2022-09-01T03:43:24.881Z,6.70
2022-09-01T03:45:51.688Z,6.65
2022-09-01T03:48:19.317Z,6.20
2022-09-01T03:50:47.145Z,6.25
2022-09-01T03:53:17.794Z,6.05
2022-09-01T03:55:46.421Z,6.38
2022-09-01T03:58:19.003Z,6.05
2022-09-01T04:00:49.499Z,6.30
2022-09-01T04:03:28.995Z,6.00
2022-09-01T04:05:59.186Z,6.00
2022-09-01T04:08:32.289Z,6.50
2022-09-01T04:11:03.791Z,6.13
2022-09-01T04:13:35.460Z,6.20
2022-09-01T04:16:02.680Z,6.40
2022-09-01T04:18:30.574Z,5.72
2022-09-01T04:20:59.355Z,5.70
2022-09-01T04:23:33.449Z,5.90
2022-09-01T04:26:08.907Z,5.87
2022-09-01T04:28:45.975Z,6.25
2022-09-01T04:31:21.581Z,5.47
2022-09-01T04:33:52.623Z,5.65
2022-09-01T04:36:30.763Z,5.55
2022-09-01T04:39:00.702Z,6.27
2022-09-01T04:41:32.061Z,5.57
2022-09-01T04:44:02.448Z,5.90
2022-09-01T04:46:31.284Z,5.93
2022-09-01T04:48:58.004Z,5.90
2022-09-01T04:51:28.139Z,5.97
2022-09-01T04:53:57.351Z,6.38
2022-09-01T04:56:26.636Z,6.63
2022-09-01T04:58:56.936Z,6.13
2022-09-01T05:01:27.417Z,6.40
2022-09-01T05:04:01.304Z,6.40
2022-09-01T05:06:29.480Z,6.00
2022-09-01T05:08:59.349Z,6.25
2022-09-01T05:11:27.756Z,6.10
2022-09-01T05:13:57.550Z,6.03
2022-09-01T05:16:27.163Z,6.10
2022-09-01T05:18:55.739Z,6.15
2022-09-01T05:21:26.423Z,6.30
2022-09-01T05:23:54.178Z,6.03
2022-09-01T05:26:26.574Z,6.35
2022-09-01T05:28:56.395Z,5.93
2022-09-01T05:31:24.230Z,6.35
2022-09-01T05:33:51.807Z,6.38
2022-09-01T05:36:23.560Z,6.20
2022-09-01T05:38:51.022Z,5.95
2022-09-01T05:41:20.359Z,5.90
2022-09-01T05:43:50.362Z,5.88
2022-09-01T05:46:20.624Z,5.88
2022-09-01T05:48:49.497Z,6.13
2022-09-01T05:51:42.809Z,5.50
2022-09-01T05:54:08.084Z,5.63
2022-09-01T05:56:43.242Z,5.30
2022-09-01T05:59:27.027Z,5.25
2022-09-01T06:01:54.717Z,5.18
2022-09-01T06:04:22.279Z,4.70
2022-09-01T06:07:05.752Z,13.90
2022-09-01T06:09:38.139Z,5.55
2022-09-01T06:12:06.733Z,4.90
2022-09-01T06:14:33.573Z,5.28
2022-09-01T06:17:01.056Z,5.13
2022-09-01T06:19:28.469Z,5.10
2022-09-01T06:21:56.770Z,5.35
2022-09-01T06:24:23.515Z,14.00
2022-09-01T06:26:50.016Z,5.43
2022-09-01T06:29:16.482Z,5.90
2022-09-01T06:31:47.485Z,5.80
2022-09-01T06:34:17.642Z,5.40
2022-09-01T06:36:45.838Z,6.13
2022-09-01T06:39:19.804Z,10.80
2022-09-01T06:41:53.227Z,7.82
2022-09-01T06:44:22.913Z,6.83
2022-09-01T06:46:53.003Z,6.05
2022-09-01T06:49:21.633Z,5.78
2022-09-01T06:51:52.766Z,5.90
2022-09-01T06:54:21.165Z,5.80
2022-09-01T06:56:51.701Z,5.73
2022-09-01T06:59:20.722Z,5.60
2022-09-01T07:04:39.374Z,5.30
2022-09-01T07:13:05.007Z,4.72
2022-09-01T07:18:21.294Z,4.30
2022-09-01T07:29:12.127Z,3.10
2022-09-01T07:32:43.791Z,2.60
2022-09-01T07:42:30.688Z,2.63
2022-09-01T07:42:30.980Z,5.50
2022-09-01T07:42:56.126Z,4.47
2022-09-01T07:45:30.223Z,2.20
2022-09-01T07:48:03.209Z,2.10
2022-09-01T07:51:07.605Z,2.50
2022-09-01T07:53:18.984Z,2.35
2022-09-01T07:55:47.020Z,2.17
2022-09-01T07:58:14.189Z,2.10
2022-09-01T08:00:45.052Z,1.80
2022-09-01T08:03:12.155Z,2.00
2022-09-01T08:05:38.840Z,1.90
2022-09-01T08:08:18.523Z,2.00
2022-09-01T08:10:49.022Z,4.57
2022-09-01T08:13:17.170Z,2.28
2022-09-01T08:18:47.953Z,1.80
2022-09-01T08:21:16.782Z,1.83
2022-09-01T08:23:44.234Z,1.83
2022-09-01T08:26:15.006Z,1.85
2022-09-01T08:28:45.880Z,1.70
2022-09-01T08:31:16.141Z,1.63
2022-09-01T08:33:44.370Z,1.92
2022-09-01T08:36:12.966Z,1.90
2022-09-01T08:38:40.908Z,1.83
2022-09-01T08:41:28.701Z,1.80
2022-09-01T08:44:04.238Z,6.88
2022-09-01T08:46:35.115Z,2.40
2022-09-01T08:49:24.809Z,1.88
2022-09-01T08:52:10.530Z,1.70
2022-09-01T08:54:49.356Z,1.60
2022-09-01T08:57:23.494Z,1.60
2022-09-01T08:59:50.165Z,1.98
2022-09-01T09:02:43.853Z,1.70
2022-09-01T09:05:32.170Z,1.70
2022-09-01T09:08:08.060Z,2.00
2022-09-01T09:11:04.162Z,1.73
2022-09-01T09:13:42.756Z,1.73
2022-09-01T09:16:16.667Z,1.65
2022-09-01T09:19:11.328Z,1.58
2022-09-01T09:21:43.335Z,1.80
2022-09-01T09:24:39.324Z,1.60
2022-09-01T09:27:07.052Z,1.60
2022-09-01T09:29:36.695Z,1.50
2022-09-01T09:32:22.607Z,1.67
2022-09-01T09:34:50.557Z,1.60
2022-09-01T09:37:19.496Z,1.80
2022-09-01T09:39:46.105Z,1.58
2022-09-01T09:42:15.240Z,1.85
2022-09-01T09:44:52.683Z,1.52
2022-09-01T09:47:44.182Z,1.50
2022-09-01T09:50:40.296Z,1.83
2022-09-01T09:53:28.043Z,1.70
2022-09-01T09:55:58.752Z,1.70
2022-09-01T09:58:34.640Z,1.65
2022-09-01T10:01:26.064Z,1.90
2022-09-01T10:03:56.236Z,1.60
2022-09-01T10:06:45.043Z,1.77
2022-09-01T10:09:37.092Z,1.50
2022-09-01T10:12:05.536Z,1.63
2022-09-01T10:14:53.366Z,1.70
2022-09-01T10:17:45.286Z,1.60
2022-09-01T10:20:21.054Z,1.65
2022-09-01T10:22:49.678Z,1.50
2022-09-01T10:25:33.162Z,1.67
2022-09-01T10:28:08.891Z,1.67
2022-09-01T10:30:37.591Z,1.50
2022-09-01T10:33:12.253Z,1.70
2022-09-01T10:35:49.587Z,1.50
2022-09-01T10:38:24.032Z,1.50
2022-09-01T10:41:07.920Z,1.60
2022-09-01T10:43:45.140Z,1.50
2022-09-01T10:46:25.841Z,1.50
2022-09-01T10:48:56.603Z,1.90
2022-09-01T10:51:38.352Z,1.48
2022-09-01T10:54:06.711Z,1.50
2022-09-01T10:56:51.285Z,1.58
2022-09-01T10:59:38.767Z,1.40
2022-09-01T11:02:27.123Z,1.50
2022-09-01T11:04:54.816Z,1.67
2022-09-01T11:07:44.344Z,1.47
2022-09-01T11:10:36.376Z,1.42
2022-09-01T11:13:23.366Z,1.60
2022-09-01T11:15:50.466Z,1.73
2022-09-01T11:18:29.546Z,1.73
2022-09-01T11:21:14.838Z,2.37
2022-09-01T11:23:41.540Z,1.70
2022-09-01T11:26:48.409Z,1.70
2022-09-01T11:29:53.263Z,1.52
2022-09-01T11:32:26.270Z,1.75
2022-09-01T11:34:54.960Z,1.80
2022-09-01T11:37:27.600Z,1.50
2022-09-01T11:40:03.673Z,1.90
2022-09-01T11:42:39.717Z,1.60
2022-09-01T11:45:23.408Z,1.70
2022-09-01T11:47:56.428Z,1.93
2022-09-01T11:50:33.232Z,1.60
2022-09-01T11:53:06.558Z,1.63
2022-09-01T11:55:40.830Z,1.83
2022-09-01T11:58:28.825Z,1.98
2022-09-01T12:01:00.485Z,1.67
2022-09-01T12:03:29.970Z,1.88
2022-09-01T12:06:03.939Z,1.98
2022-09-01T12:08:34.763Z,1.75
2022-09-01T12:11:03.747Z,1.90
2022-09-01T12:13:30.178Z,1.67
2022-09-01T12:16:19.399Z,1.92
2022-09-01T12:18:51.072Z,2.00
2022-09-01T12:21:23.558Z,1.60
2022-09-01T12:23:50.398Z,1.90
2022-09-01T12:26:23.481Z,1.80
2022-09-01T12:28:50.879Z,1.80
2022-09-01T12:31:22.033Z,1.80
2022-09-01T12:33:48.581Z,2.17
2022-09-01T12:36:21.784Z,2.20
2022-09-01T12:38:49.138Z,2.10
2022-09-01T12:41:39.529Z,2.10
2022-09-01T12:44:31.689Z,2.00
2022-09-01T12:47:04.734Z,2.22
2022-09-01T12:49:45.370Z,2.05
2022-09-01T12:52:25.880Z,2.20
2022-09-01T12:55:07.905Z,1.90
2022-09-01T12:57:48.442Z,1.73
2022-09-01T13:00:21.325Z,2.00
2022-09-01T13:02:50.769Z,3.55
2022-09-01T13:05:40.990Z,1.80
2022-09-01T13:08:12.102Z,2.03
2022-09-01T13:10:43.517Z,1.73
2022-09-01T13:13:11.269Z,1.92
2022-09-01T13:15:41.251Z,1.98
2022-09-01T13:18:07.683Z,1.80
2022-09-01T13:20:35.099Z,1.73
2022-09-01T13:23:02.020Z,1.73
2022-09-01T13:25:28.699Z,1.70
2022-09-01T13:27:55.532Z,1.77
2022-09-01T13:30:25.076Z,1.70
2022-09-01T13:35:38.701Z,1.60
2022-09-01T13:38:05.380Z,1.80
2022-09-01T13:40:32.002Z,1.88
2022-09-01T13:42:58.964Z,1.90
2022-09-01T13:45:25.847Z,1.70
2022-09-01T13:53:27.260Z,2.00
2022-09-01T13:55:53.869Z,1.80
2022-09-01T13:58:20.542Z,1.63
2022-09-01T14:00:47.513Z,1.80
2022-09-01T14:03:18.009Z,1.98
2022-09-01T14:05:47.727Z,2.00
2022-09-01T14:08:20.884Z,1.77
2022-09-01T14:10:50.829Z,1.80
2022-09-01T14:13:22.353Z,1.70
2022-09-01T14:15:49.459Z,1.90
2022-09-01T14:18:17.290Z,1.70
2022-09-01T14:20:47.168Z,1.70
2022-09-01T14:23:15.388Z,1.90
2022-09-01T14:25:45.574Z,1.55
2022-09-01T14:28:13.230Z,1.58
2022-09-01T14:30:42.622Z,1.60
2022-09-01T14:33:09.961Z,1.70
2022-09-01T14:35:39.710Z,1.73
2022-09-01T14:38:08.319Z,1.60
2022-09-01T14:40:37.838Z,1.50
2022-09-01T14:43:09.819Z,1.40
2022-09-01T14:45:39.633Z,1.63
2022-09-01T14:48:08.428Z,1.75
2022-09-01T14:50:40.923Z,2.45
2022-09-01T14:53:08.116Z,1.48
2022-09-01T14:55:34.599Z,1.70
2022-09-01T14:58:01.464Z,1.50
2022-09-01T15:00:30.066Z,1.95
2022-09-01T15:02:57.418Z,2.03
2022-09-01T15:05:24.848Z,1.90
2022-09-01T15:07:52.472Z,1.90
2022-09-01T15:10:24.823Z,8.67
2022-09-01T15:12:53.661Z,2.03
2022-09-01T15:15:20.259Z,2.00
2022-09-01T15:17:46.855Z,1.88
2022-09-01T15:20:32.159Z,8.15
2022-09-01T15:22:58.851Z,1.80
2022-09-01T15:25:25.629Z,1.60
2022-09-01T15:27:52.511Z,1.95
2022-09-01T15:30:20.237Z,1.85
2022-09-01T15:32:49.748Z,1.80
2022-09-01T15:35:17.023Z,2.20
2022-09-01T15:37:45.446Z,1.92
2022-09-01T15:40:12.768Z,1.90
2022-09-01T15:42:40.030Z,2.20
2022-09-01T15:45:11.984Z,2.10
2022-09-01T15:47:40.382Z,2.07
2022-09-01T15:50:11.788Z,2.20
2022-09-01T15:53:00.779Z,2.10
2022-09-01T15:55:30.387Z,2.30
2022-09-01T15:57:58.331Z,2.17
2022-09-01T16:00:27.190Z,2.00
2022-09-01T16:02:56.332Z,2.47
2022-09-01T16:05:22.929Z,2.20
2022-09-01T16:07:51.092Z,2.40
2022-09-01T16:10:18.330Z,2.00
2022-09-01T16:12:47.886Z,2.20
2022-09-01T16:15:16.806Z,2.03
2022-09-01T16:17:55.231Z,2.17
2022-09-01T16:20:25.186Z,2.17
2022-09-01T16:22:54.496Z,2.10
2022-09-01T16:25:31.463Z,2.30
2022-09-01T16:28:04.602Z,1.92
2022-09-01T16:30:31.092Z,2.20
2022-09-01T16:33:02.292Z,2.17
2022-09-01T16:35:44.713Z,1.98
2022-09-01T16:38:27.799Z,2.10
2022-09-01T16:41:16.099Z,2.03
2022-09-01T16:44:04.584Z,2.22
2022-09-01T16:46:37.707Z,2.03
2022-09-01T16:49:35.944Z,2.10
2022-09-01T16:52:09.908Z,2.00
2022-09-01T16:54:46.874Z,2.28
2022-09-01T16:57:27.105Z,2.00
2022-09-01T16:59:58.351Z,2.05
2022-09-01T17:02:50.957Z,2.28
2022-09-01T17:05:40.912Z,2.10
2022-09-01T17:08:21.590Z,5.13
2022-09-01T17:11:10.284Z,2.70
2022-09-01T17:13:47.447Z,2.17
2022-09-01T17:16:37.006Z,2.03
2022-09-01T17:19:07.372Z,2.00
2022-09-01T17:21:46.031Z,2.20
2022-09-01T17:24:43.927Z,1.98
2022-09-01T17:27:54.208Z,2.40
2022-09-01T17:30:21.012Z,2.13
2022-09-01T17:33:28.264Z,2.27
2022-09-01T17:36:09.085Z,1.90
2022-09-01T17:38:54.071Z,2.10
2022-09-01T17:41:55.743Z,2.10
2022-09-01T17:44:36.164Z,2.10
2022-09-01T17:47:40.463Z,2.00
2022-09-01T17:50:20.910Z,2.38
2022-09-01T17:52:53.290Z,2.10
2022-09-01T17:55:38.555Z,2.00
2022-09-01T17:58:27.023Z,2.17
2022-09-01T18:01:34.015Z,2.43
2022-09-01T18:04:39.514Z,2.00
2022-09-01T18:07:40.096Z,3.05
2022-09-01T18:10:11.544Z,2.20
2022-09-01T18:12:40.335Z,2.15
2022-09-01T18:15:11.132Z,2.00
2022-09-01T18:17:43.476Z,2.30
2022-09-01T18:20:32.865Z,2.22
2022-09-01T18:23:06.732Z,4.30
2022-09-01T18:25:47.799Z,2.45
2022-09-01T18:28:15.296Z,2.67
2022-09-01T18:30:54.686Z,2.22
2022-09-01T18:33:29.151Z,2.00
2022-09-01T18:36:13.843Z,2.55
2022-09-01T18:38:47.761Z,2.22
2022-09-01T18:41:55.531Z,2.33
2022-09-01T18:44:56.950Z,2.30
2022-09-01T18:47:33.191Z,2.42
2022-09-01T18:50:25.796Z,2.40
2022-09-01T18:52:55.369Z,2.70
2022-09-01T18:55:42.903Z,2.30
2022-09-01T18:58:26.412Z,2.33
2022-09-01T19:00:59.468Z,2.35
2022-09-01T19:03:39.782Z,2.33
2022-09-01T19:06:23.188Z,2.28
2022-09-01T19:09:00.860Z,2.47
2022-09-01T19:11:46.707Z,3.72
2022-09-01T19:14:38.514Z,2.28
2022-09-01T19:17:24.928Z,2.40
2022-09-01T19:20:05.485Z,2.30
2022-09-01T19:22:53.941Z,2.50
2022-09-01T19:25:36.452Z,2.20
2022-09-01T19:28:12.479Z,2.50
2022-09-01T19:30:50.433Z,2.40
2022-09-01T19:33:22.359Z,3.03
2022-09-01T19:35:53.252Z,2.70
2022-09-01T19:38:27.397Z,2.50
2022-09-01T19:41:23.507Z,2.95
2022-09-01T19:44:00.640Z,2.80
2022-09-01T19:46:59.596Z,2.63
2022-09-01T19:49:37.258Z,3.17
2022-09-01T19:52:07.852Z,2.53
2022-09-01T19:54:50.483Z,2.47
2022-09-01T19:57:25.357Z,3.00
2022-09-01T20:00:07.838Z,2.70
2022-09-01T20:02:38.498Z,3.00
2022-09-01T20:05:16.775Z,3.00
2022-09-01T20:07:57.887Z,2.70
2022-09-01T20:11:05.149Z,3.45
2022-09-01T20:14:20.261Z,2.80
2022-09-01T20:16:53.276Z,3.00
2022-09-01T20:19:42.650Z,3.10
2022-09-01T20:22:14.611Z,14.65
2022-09-01T20:24:41.437Z,3.67
2022-09-01T20:27:37.140Z,4.03
2022-09-01T20:30:06.779Z,3.43
2022-09-01T20:33:03.229Z,20.92
2022-09-01T20:35:36.284Z,3.30
2022-09-01T20:38:28.375Z,3.30
2022-09-01T20:40:58.905Z,3.05
2022-09-01T20:43:31.272Z,2.90
2022-09-01T20:45:57.898Z,3.10
2022-09-01T20:48:27.205Z,2.88
2022-09-01T20:51:11.632Z,2.80
2022-09-01T20:54:03.984Z,3.38
2022-09-01T20:56:52.432Z,3.23
2022-09-01T20:59:38.702Z,3.78
2022-09-01T21:02:38.186Z,3.00
2022-09-01T21:05:23.508Z,2.83
2022-09-01T21:07:52.949Z,2.30
2022-09-01T21:10:48.058Z,2.83
2022-09-01T21:13:26.645Z,2.70
2022-09-01T21:16:03.613Z,3.22
2022-09-01T21:18:52.352Z,2.88
2022-09-01T21:21:28.159Z,3.13
2022-09-01T21:23:54.661Z,3.00
2022-09-01T21:26:21.310Z,3.22
2022-09-01T21:28:53.173Z,4.25
2022-09-01T21:31:20.026Z,3.55
2022-09-01T21:33:46.657Z,2.90
2022-09-01T21:36:13.081Z,2.90
2022-09-01T21:38:39.511Z,2.90
2022-09-01T21:41:10.845Z,3.20
2022-09-01T21:43:43.766Z,2.70
2022-09-01T21:46:11.014Z,2.78
2022-09-01T21:48:37.561Z,2.90
2022-09-01T21:51:04.791Z,3.10
2022-09-01T21:53:32.546Z,3.00
2022-09-01T21:55:59.110Z,2.90
2022-09-01T21:58:25.597Z,5.47
2022-09-01T22:00:52.347Z,4.50
2022-09-01T22:03:18.895Z,3.15
2022-09-01T22:05:45.429Z,3.15
2022-09-01T22:08:14.165Z,3.13
2022-09-01T22:10:44.421Z,2.80
2022-09-01T22:13:11.564Z,2.93
2022-09-01T22:15:44.291Z,2.90
2022-09-01T22:18:11.358Z,2.63
2022-09-01T22:20:38.390Z,2.97
2022-09-01T22:23:05.004Z,2.88
2022-09-01T22:25:32.902Z,3.20
2022-09-01T22:28:01.729Z,3.33
2022-09-01T22:30:28.320Z,3.22
2022-09-01T22:32:54.866Z,3.42
2022-09-01T22:35:21.550Z,3.30
2022-09-01T22:37:48.819Z,2.87
2022-09-01T22:40:16.167Z,3.25
2022-09-01T22:42:43.196Z,3.13
2022-09-01T22:45:11.582Z,2.97
2022-09-01T22:47:38.792Z,3.15
2022-09-01T22:50:07.280Z,3.20
2022-09-01T22:52:35.531Z,3.10
2022-09-01T22:55:03.293Z,3.30
2022-09-01T22:57:29.934Z,3.38
2022-09-01T22:59:56.618Z,3.03
2022-09-01T23:02:23.410Z,3.27
2022-09-01T23:04:50.381Z,3.13
2022-09-01T23:07:16.887Z,2.70
2022-09-01T23:09:43.384Z,3.00
2022-09-01T23:12:09.867Z,2.95
2022-09-01T23:14:36.349Z,3.43
2022-09-01T23:17:02.932Z,3.40
2022-09-01T23:19:29.486Z,3.15
2022-09-01T23:21:55.954Z,3.08
2022-09-01T23:24:22.742Z,3.50
2022-09-01T23:26:49.751Z,3.97
2022-09-01T23:29:17.325Z,3.70
2022-09-01T23:31:44.221Z,3.40
2022-09-01T23:34:13.172Z,3.60
2022-09-01T23:36:40.351Z,3.30
2022-09-01T23:39:07.166Z,3.27
2022-09-01T23:41:36.880Z,3.20
2022-09-01T23:44:05.848Z,3.20
2022-09-01T23:46:35.153Z,3.58
2022-09-01T23:49:02.349Z,3.20
2022-09-01T23:51:29.863Z,3.07
2022-09-01T23:53:56.757Z,3.00
2022-09-01T23:56:26.495Z,3.10
2022-09-01T23:58:53.235Z,3.17
